sensor_id;sensor_type;location;lat;lon;timestamp;pressure;altitude;pressure_sealevel;temperature;humidity
54994;BME280;40891;47.242;8.648;2023-06-04T00:02:21;96140.44;;;17.92;79.71
54994;BME280;40891;47.242;8.648;2023-06-04T00:04:46;96146.84;;;17.92;78.96
54994;BME280;40891;47.242;8.648;2023-06-04T00:07:11;96145.06;;;17.84;80.04
54994;BME280;40891;47.242;8.648;2023-06-04T00:09:37;96137.66;;;17.86;79.88
54994;BME280;40891;47.242;8.648;2023-06-04T00:12:02;96136.34;;;17.82;79.54
54994;BME280;40891;47.242;8.648;2023-06-04T00:14:28;96132.28;;;17.88;79.50
54994;BME280;40891;47.242;8.648;2023-06-04T00:16:53;96137.63;;;17.81;79.74
54994;BME280;40891;47.242;8.648;2023-06-04T00:19:18;96140.41;;;17.70;79.99
54994;BME280;40891;47.242;8.648;2023-06-04T00:21:45;96135.53;;;17.64;80.16
54994;BME280;40891;47.242;8.648;2023-06-04T00:24:10;96140.41;;;17.70;79.84
54994;BME280;40891;47.242;8.648;2023-06-04T00:26:37;96139.84;;;17.65;80.21
54994;BME280;40891;47.242;8.648;2023-06-04T00:29:03;96143.88;;;17.53;80.65
54994;BME280;40891;47.242;8.648;2023-06-04T00:31:28;96145.63;;;17.51;81.40
54994;BME280;40891;47.242;8.648;2023-06-04T00:33:53;96142.81;;;17.51;81.23
54994;BME280;40891;47.242;8.648;2023-06-04T00:36:19;96146.38;;;17.40;81.29
54994;BME280;40891;47.242;8.648;2023-06-04T00:38:44;96152.22;;;17.37;82.07
54994;BME280;40891;47.242;8.648;2023-06-04T00:41:09;96152.72;;;17.35;81.93
54994;BME280;40891;47.242;8.648;2023-06-04T00:43:35;96149.13;;;17.29;81.95
54994;BME280;40891;47.242;8.648;2023-06-04T00:46:01;96148.09;;;17.27;82.23
54994;BME280;40891;47.242;8.648;2023-06-04T00:48:28;96152.94;;;17.26;82.33
54994;BME280;40891;47.242;8.648;2023-06-04T00:50:55;96147.06;;;17.30;82.71
54994;BME280;40891;47.242;8.648;2023-06-04T00:53:21;96147.06;;;17.30;82.77
54994;BME280;40891;47.242;8.648;2023-06-04T00:55:46;96154.25;;;17.31;82.51
54994;BME280;40891;47.242;8.648;2023-06-04T00:58:11;96155.28;;;17.33;82.47
54994;BME280;40891;47.242;8.648;2023-06-04T01:00:38;96149.41;;;17.31;82.46
54994;BME280;40891;47.242;8.648;2023-06-04T01:03:17;96153.53;;;17.41;82.05
54994;BME280;40891;47.242;8.648;2023-06-04T01:05:49;96157.63;;;17.40;82.53
54994;BME280;40891;47.242;8.648;2023-06-04T01:08:17;96158.63;;;17.37;82.38
54994;BME280;40891;47.242;8.648;2023-06-04T01:10:51;96152.72;;;17.35;83.18
54994;BME280;40891;47.242;8.648;2023-06-04T01:13:16;96150.38;;;17.28;83.04
54994;BME280;40891;47.242;8.648;2023-06-04T01:15:41;96145.72;;;17.14;84.41
54994;BME280;40891;47.242;8.648;2023-06-04T01:18:07;96144.38;;;17.04;85.05
54994;BME280;40891;47.242;8.648;2023-06-04T01:20:37;96145.66;;;17.03;85.21
54994;BME280;40891;47.242;8.648;2023-06-04T01:23:28;96147.75;;;17.08;84.71
54994;BME280;40891;47.242;8.648;2023-06-04T01:26:03;96147.75;;;17.08;85.52
54994;BME280;40891;47.242;8.648;2023-06-04T01:28:31;96152.06;;;17.04;85.98
54994;BME280;40891;47.242;8.648;2023-06-04T01:30:58;96156.91;;;17.03;86.77
54994;BME280;40891;47.242;8.648;2023-06-04T01:33:24;96157.13;;;16.99;86.70
54994;BME280;40891;47.242;8.648;2023-06-04T01:35:50;96157.88;;;17.00;87.23
54994;BME280;40891;47.242;8.648;2023-06-04T01:38:16;96156.34;;;16.99;86.70
54994;BME280;40891;47.242;8.648;2023-06-04T01:40:41;96163.78;;;17.02;87.04
54994;BME280;40891;47.242;8.648;2023-06-04T01:43:07;96164.22;;;16.95;85.09
54994;BME280;40891;47.242;8.648;2023-06-04T01:45:32;96160.59;;;16.83;85.47
54994;BME280;40891;47.242;8.648;2023-06-04T01:48:01;96159.28;;;16.79;85.54
54994;BME280;40891;47.242;8.648;2023-06-04T01:50:26;96154.91;;;16.78;85.44
54994;BME280;40891;47.242;8.648;2023-06-04T01:52:52;96163.38;;;16.83;84.88
54994;BME280;40891;47.242;8.648;2023-06-04T01:55:17;96161.53;;;16.75;85.33
54994;BME280;40891;47.242;8.648;2023-06-04T01:57:43;96157.44;;;16.70;85.32
54994;BME280;40891;47.242;8.648;2023-06-04T02:00:10;96164.03;;;16.67;84.76
54994;BME280;40891;47.242;8.648;2023-06-04T02:02:37;96169.66;;;16.67;85.15
54994;BME280;40891;47.242;8.648;2023-06-04T02:05:06;96168.09;;;16.66;84.34
54994;BME280;40891;47.242;8.648;2023-06-04T02:07:33;96173.97;;;16.63;83.96
54994;BME280;40891;47.242;8.648;2023-06-04T02:09:59;96171.63;;;16.61;84.34
54994;BME280;40891;47.242;8.648;2023-06-04T02:12:25;96170.88;;;16.61;84.40
54994;BME280;40891;47.242;8.648;2023-06-04T02:14:50;96176.16;;;16.53;84.98
54994;BME280;40891;47.242;8.648;2023-06-04T02:17:15;96178.09;;;16.47;84.92
54994;BME280;40891;47.242;8.648;2023-06-04T02:19:44;96176.59;;;16.46;84.71
54994;BME280;40891;47.242;8.648;2023-06-04T02:22:14;96167.91;;;16.44;86.02
54994;BME280;40891;47.242;8.648;2023-06-04T02:24:40;96169.66;;;16.42;85.34
54994;BME280;40891;47.242;8.648;2023-06-04T02:27:08;96176.25;;;16.39;85.48
54994;BME280;40891;47.242;8.648;2023-06-04T02:29:33;96167.56;;;16.37;86.08
54994;BME280;40891;47.242;8.648;2023-06-04T02:31:58;96170.09;;;16.34;85.47
54994;BME280;40891;47.242;8.648;2023-06-04T02:34:24;96181.78;;;16.27;86.44
54994;BME280;40891;47.242;8.648;2023-06-04T02:36:50;96174.59;;;16.26;86.44
54994;BME280;40891;47.242;8.648;2023-06-04T02:39:16;96182.97;;;16.21;86.73
54994;BME280;40891;47.242;8.648;2023-06-04T02:41:42;96176.09;;;16.22;87.27
54994;BME280;40891;47.242;8.648;2023-06-04T02:44:07;96186.00;;;16.17;88.37
54994;BME280;40891;47.242;8.648;2023-06-04T02:46:32;96193.03;;;16.07;89.03
54994;BME280;40891;47.242;8.648;2023-06-04T02:48:57;96188.19;;;16.08;90.09
54994;BME280;40891;47.242;8.648;2023-06-04T02:51:23;96182.84;;;16.10;90.33
54994;BME280;40891;47.242;8.648;2023-06-04T02:53:49;96190.44;;;16.04;90.86
54994;BME280;40891;47.242;8.648;2023-06-04T02:56:14;96188.63;;;16.01;91.84
54994;BME280;40891;47.242;8.648;2023-06-04T02:58:49;96184.88;;;16.09;91.79
54994;BME280;40891;47.242;8.648;2023-06-04T03:01:25;96189.25;;;16.10;91.59
54994;BME280;40891;47.242;8.648;2023-06-04T03:03:51;96190.09;;;15.96;92.91
54994;BME280;40891;47.242;8.648;2023-06-04T03:06:18;96193.72;;;16.02;92.86
54994;BME280;40891;47.242;8.648;2023-06-04T03:08:45;96192.56;;;16.09;92.68
54994;BME280;40891;47.242;8.648;2023-06-04T03:11:11;96193.88;;;16.13;92.27
54994;BME280;40891;47.242;8.648;2023-06-04T03:13:37;96197.44;;;16.14;92.79
54994;BME280;40891;47.242;8.648;2023-06-04T03:16:03;96204.31;;;16.13;92.94
54994;BME280;40891;47.242;8.648;2023-06-04T03:18:28;96203.47;;;16.07;93.40
54994;BME280;40891;47.242;8.648;2023-06-04T03:20:54;96209.31;;;16.03;92.93
54994;BME280;40891;47.242;8.648;2023-06-04T03:23:20;96210.09;;;16.04;91.80
54994;BME280;40891;47.242;8.648;2023-06-04T03:25:46;96213.88;;;16.01;90.26
54994;BME280;40891;47.242;8.648;2023-06-04T03:28:11;96218.00;;;16.05;89.84
54994;BME280;40891;47.242;8.648;2023-06-04T03:30:37;96212.31;;;16.00;90.19
54994;BME280;40891;47.242;8.648;2023-06-04T03:33:02;96216.88;;;15.97;89.53
54994;BME280;40891;47.242;8.648;2023-06-04T03:35:28;96225.66;;;15.85;90.14
54994;BME280;40891;47.242;8.648;2023-06-04T03:37:53;96230.41;;;15.79;90.02
54994;BME280;40891;47.242;8.648;2023-06-04T03:40:18;96229.94;;;15.80;90.48
54994;BME280;40891;47.242;8.648;2023-06-04T03:42:44;96234.78;;;15.80;89.70
54994;BME280;40891;47.242;8.648;2023-06-04T03:45:09;96229.72;;;15.84;89.75
54994;BME280;40891;47.242;8.648;2023-06-04T03:47:35;96233.50;;;15.81;90.24
54994;BME280;40891;47.242;8.648;2023-06-04T03:50:01;96236.81;;;15.79;90.45
54994;BME280;40891;47.242;8.648;2023-06-04T03:52:27;96241.16;;;15.80;90.14
54994;BME280;40891;47.242;8.648;2023-06-04T03:54:52;96241.44;;;15.82;90.17
54994;BME280;40891;47.242;8.648;2023-06-04T03:57:17;96243.53;;;15.87;90.22
54994;BME280;40891;47.242;8.648;2023-06-04T03:59:43;96237.16;;;15.87;90.56
54994;BME280;40891;47.242;8.648;2023-06-04T04:02:08;96244.09;;;15.91;90.25
54994;BME280;40891;47.242;8.648;2023-06-04T04:04:34;96243.13;;;15.94;90.21
54994;BME280;40891;47.242;8.648;2023-06-04T04:06:59;96239.81;;;15.96;89.45
54994;BME280;40891;47.242;8.648;2023-06-04T04:09:26;96243.47;;;16.02;89.58
54994;BME280;40891;47.242;8.648;2023-06-04T04:11:51;96246.81;;;16.06;88.99
54994;BME280;40891;47.242;8.648;2023-06-04T04:14:16;96248.22;;;16.16;88.86
54994;BME280;40891;47.242;8.648;2023-06-04T04:16:42;96249.53;;;16.20;88.32
54994;BME280;40891;47.242;8.648;2023-06-04T04:19:07;96250.44;;;16.32;87.87
54994;BME280;40891;47.242;8.648;2023-06-04T04:21:36;96249.66;;;16.31;87.82
54994;BME280;40891;47.242;8.648;2023-06-04T04:24:03;96247.81;;;16.49;87.34
54994;BME280;40891;47.242;8.648;2023-06-04T04:26:28;96247.22;;;16.45;87.58
54994;BME280;40891;47.242;8.648;2023-06-04T04:28:54;96245.47;;;16.47;87.54
54994;BME280;40891;47.242;8.648;2023-06-04T04:31:26;96249.63;;;16.52;87.67
54994;BME280;40891;47.242;8.648;2023-06-04T04:33:51;96241.81;;;16.61;87.62
54994;BME280;40891;47.242;8.648;2023-06-04T04:36:17;96242.13;;;16.69;86.66
54994;BME280;40891;47.242;8.648;2023-06-04T04:38:43;96247.13;;;16.85;86.24
54994;BME280;40891;47.242;8.648;2023-06-04T04:41:10;96248.78;;;16.97;86.41
54994;BME280;40891;47.242;8.648;2023-06-04T04:43:37;96253.19;;;17.04;85.70
54994;BME280;40891;47.242;8.648;2023-06-04T04:46:04;96244.50;;;17.07;85.47
54994;BME280;40891;47.242;8.648;2023-06-04T04:48:30;96250.19;;;17.13;85.62
54994;BME280;40891;47.242;8.648;2023-06-04T04:50:55;96245.09;;;17.17;85.91
54994;BME280;40891;47.242;8.648;2023-06-04T04:53:21;96246.47;;;17.32;86.48
54994;BME280;40891;47.242;8.648;2023-06-04T04:55:47;96247.88;;;17.48;86.19
54994;BME280;40891;47.242;8.648;2023-06-04T04:58:12;96246.19;;;17.61;86.50
54994;BME280;40891;47.242;8.648;2023-06-04T05:00:38;96254.94;;;17.75;85.60
54994;BME280;40891;47.242;8.648;2023-06-04T05:03:03;96252.69;;;17.84;82.44
54994;BME280;40891;47.242;8.648;2023-06-04T05:05:29;96259.69;;;18.00;81.26
54994;BME280;40891;47.242;8.648;2023-06-04T05:07:54;96255.34;;;18.04;81.06
54994;BME280;40891;47.242;8.648;2023-06-04T05:10:20;96257.66;;;18.06;79.99
54994;BME280;40891;47.242;8.648;2023-06-04T05:12:56;96264.59;;;18.16;78.17
54994;BME280;40891;47.242;8.648;2023-06-04T05:15:22;96255.66;;;18.23;78.52
54994;BME280;40891;47.242;8.648;2023-06-04T05:17:49;96268.22;;;18.27;79.52
54994;BME280;40891;47.242;8.648;2023-06-04T05:20:17;96261.63;;;18.36;78.59
54994;BME280;40891;47.242;8.648;2023-06-04T05:22:42;96263.47;;;18.50;78.45
54994;BME280;40891;47.242;8.648;2023-06-04T05:25:09;96270.63;;;18.51;77.59
54994;BME280;40891;47.242;8.648;2023-06-04T05:27:35;96256.31;;;18.66;77.19
54994;BME280;40891;47.242;8.648;2023-06-04T05:30:01;96260.44;;;18.76;76.18
54994;BME280;40891;47.242;8.648;2023-06-04T05:32:27;96270.16;;;18.75;76.48
54994;BME280;40891;47.242;8.648;2023-06-04T05:34:54;96268.13;;;18.75;75.25
54994;BME280;40891;47.242;8.648;2023-06-04T05:37:22;96271.72;;;18.87;74.84
54994;BME280;40891;47.242;8.648;2023-06-04T05:39:49;96268.16;;;18.97;74.49
54994;BME280;40891;47.242;8.648;2023-06-04T05:42:14;96263.81;;;19.02;75.88
54994;BME280;40891;47.242;8.648;2023-06-04T05:44:40;96268.66;;;19.13;75.44
54994;BME280;40891;47.242;8.648;2023-06-04T05:47:06;96265.34;;;19.25;76.75
54994;BME280;40891;47.242;8.648;2023-06-04T05:49:33;96266.91;;;19.37;76.72
54994;BME280;40891;47.242;8.648;2023-06-04T05:51:59;96274.56;;;19.53;78.13
54994;BME280;40891;47.242;8.648;2023-06-04T05:54:24;96273.28;;;19.49;78.32
54994;BME280;40891;47.242;8.648;2023-06-04T05:56:50;96268.91;;;19.48;78.30
54994;BME280;40891;47.242;8.648;2023-06-04T05:59:15;96276.09;;;19.54;77.95
54994;BME280;40891;47.242;8.648;2023-06-04T06:01:40;96266.09;;;19.59;76.08
54994;BME280;40891;47.242;8.648;2023-06-04T06:04:06;96270.44;;;19.65;74.63
54994;BME280;40891;47.242;8.648;2023-06-04T06:06:31;96274.00;;;19.72;74.54
54994;BME280;40891;47.242;8.648;2023-06-04T06:08:56;96276.59;;;19.75;75.70
54994;BME280;40891;47.242;8.648;2023-06-04T06:11:23;96274.97;;;19.96;75.50
54994;BME280;40891;47.242;8.648;2023-06-04T06:13:48;96273.19;;;19.99;76.36
54994;BME280;40891;47.242;8.648;2023-06-04T06:16:13;96277.28;;;20.03;75.69
54994;BME280;40891;47.242;8.648;2023-06-04T06:18:39;96279.06;;;20.06;74.88
54994;BME280;40891;47.242;8.648;2023-06-04T06:21:05;96276.44;;;20.19;73.19
54994;BME280;40891;47.242;8.648;2023-06-04T06:23:30;96277.72;;;20.29;72.15
54994;BME280;40891;47.242;8.648;2023-06-04T06:25:56;96280.25;;;20.39;71.93
54994;BME280;40891;47.242;8.648;2023-06-04T06:28:22;96283.00;;;20.50;72.20
54994;BME280;40891;47.242;8.648;2023-06-04T06:30:47;96283.06;;;20.85;71.91
54994;BME280;40891;47.242;8.648;2023-06-04T06:33:13;96288.19;;;20.86;69.17
54994;BME280;40891;47.242;8.648;2023-06-04T06:35:38;96291.19;;;21.05;68.91
54994;BME280;40891;47.242;8.648;2023-06-04T06:38:03;96297.06;;;21.07;70.36
54994;BME280;40891;47.242;8.648;2023-06-04T06:40:29;96294.25;;;21.37;69.64
54994;BME280;40891;47.242;8.648;2023-06-04T06:42:55;96289.72;;;21.58;67.40
54994;BME280;40891;47.242;8.648;2023-06-04T06:45:21;96293.53;;;21.36;66.78
54994;BME280;40891;47.242;8.648;2023-06-04T06:47:46;96293.53;;;21.60;66.68
54994;BME280;40891;47.242;8.648;2023-06-04T06:50:11;96292.00;;;21.89;66.17
54994;BME280;40891;47.242;8.648;2023-06-04T06:52:38;96295.31;;;21.63;63.50
54994;BME280;40891;47.242;8.648;2023-06-04T06:55:04;96298.50;;;21.84;63.37
54994;BME280;40891;47.242;8.648;2023-06-04T06:57:29;96294.16;;;21.78;61.38
54994;BME280;40891;47.242;8.648;2023-06-04T06:59:55;96291.31;;;21.78;62.16
54994;BME280;40891;47.242;8.648;2023-06-04T07:02:21;96294.06;;;21.89;63.47
54994;BME280;40891;47.242;8.648;2023-06-04T07:04:46;96290.41;;;22.18;64.11
54994;BME280;40891;47.242;8.648;2023-06-04T07:07:12;96288.94;;;22.11;64.19
54994;BME280;40891;47.242;8.648;2023-06-04T07:09:37;96292.31;;;21.56;66.67
54994;BME280;40891;47.242;8.648;2023-06-04T07:12:03;96293.31;;;21.58;64.83
54994;BME280;40891;47.242;8.648;2023-06-04T07:14:28;96294.16;;;21.78;66.61
54994;BME280;40891;47.242;8.648;2023-06-04T07:16:53;96296.50;;;22.03;65.30
54994;BME280;40891;47.242;8.648;2023-06-04T07:19:19;96291.25;;;22.13;64.05
54994;BME280;40891;47.242;8.648;2023-06-04T07:21:44;96291.63;;;22.22;65.19
54994;BME280;40891;47.242;8.648;2023-06-04T07:24:10;96287.06;;;21.95;66.08
54994;BME280;40891;47.242;8.648;2023-06-04T07:26:35;96293.47;;;21.72;64.37
54994;BME280;40891;47.242;8.648;2023-06-04T07:29:01;96291.78;;;21.57;64.92
54994;BME280;40891;47.242;8.648;2023-06-04T07:31:27;96289.97;;;21.60;65.24
54994;BME280;40891;47.242;8.648;2023-06-04T07:33:52;96293.41;;;21.47;64.87
54994;BME280;40891;47.242;8.648;2023-06-04T07:36:17;96294.00;;;21.40;66.49
54994;BME280;40891;47.242;8.648;2023-06-04T07:38:43;96291.56;;;21.80;66.30
54994;BME280;40891;47.242;8.648;2023-06-04T07:41:09;96284.34;;;22.08;64.01
54994;BME280;40891;47.242;8.648;2023-06-04T07:43:35;96287.03;;;21.71;64.71
54994;BME280;40891;47.242;8.648;2023-06-04T07:46:04;96290.00;;;21.84;63.28
54994;BME280;40891;47.242;8.648;2023-06-04T07:48:30;96285.00;;;21.96;62.80
54994;BME280;40891;47.242;8.648;2023-06-04T07:51:02;96285.44;;;21.76;63.01
54994;BME280;40891;47.242;8.648;2023-06-04T07:53:29;96283.94;;;21.99;62.62
54994;BME280;40891;47.242;8.648;2023-06-04T07:55:56;96275.38;;;22.28;61.55
54994;BME280;40891;47.242;8.648;2023-06-04T07:58:22;96280.03;;;22.26;61.18
54994;BME280;40891;47.242;8.648;2023-06-04T08:00:47;96280.03;;;22.26;59.85
54994;BME280;40891;47.242;8.648;2023-06-04T08:03:13;96277.50;;;22.60;60.96
54994;BME280;40891;47.242;8.648;2023-06-04T08:05:40;96278.41;;;22.30;59.49
54994;BME280;40891;47.242;8.648;2023-06-04T08:08:05;96281.63;;;22.21;62.04
54994;BME280;40891;47.242;8.648;2023-06-04T08:10:31;96275.38;;;22.04;61.41
54994;BME280;40891;47.242;8.648;2023-06-04T08:12:56;96276.84;;;22.11;62.44
54994;BME280;40891;47.242;8.648;2023-06-04T08:15:22;96277.81;;;21.95;63.48
54994;BME280;40891;47.242;8.648;2023-06-04T08:17:48;96276.97;;;22.00;62.66
54994;BME280;40891;47.242;8.648;2023-06-04T08:20:13;96284.06;;;22.12;62.52
54994;BME280;40891;47.242;8.648;2023-06-04T08:22:38;96276.09;;;22.29;61.43
54994;BME280;40891;47.242;8.648;2023-06-04T08:25:04;96278.22;;;22.47;63.14
54994;BME280;40891;47.242;8.648;2023-06-04T08:27:30;96281.84;;;22.66;61.44
54994;BME280;40891;47.242;8.648;2023-06-04T08:29:56;96272.50;;;22.71;61.85
54994;BME280;40891;47.242;8.648;2023-06-04T08:32:21;96269.81;;;22.97;60.32
54994;BME280;40891;47.242;8.648;2023-06-04T08:34:47;96263.75;;;23.07;59.68
54994;BME280;40891;47.242;8.648;2023-06-04T08:37:12;96270.34;;;22.77;59.30
54994;BME280;40891;47.242;8.648;2023-06-04T08:39:37;96269.13;;;22.91;56.75
54994;BME280;40891;47.242;8.648;2023-06-04T08:42:06;96265.50;;;22.91;57.69
54994;BME280;40891;47.242;8.648;2023-06-04T08:44:35;96261.34;;;23.11;60.15
54994;BME280;40891;47.242;8.648;2023-06-04T08:47:05;96250.94;;;23.32;59.25
54994;BME280;40891;47.242;8.648;2023-06-04T08:49:34;96261.47;;;23.37;59.20
54994;BME280;40891;47.242;8.648;2023-06-04T08:52:01;96264.53;;;23.39;59.03
54994;BME280;40891;47.242;8.648;2023-06-04T08:54:27;96269.75;;;23.35;57.32
54994;BME280;40891;47.242;8.648;2023-06-04T08:56:56;96270.28;;;23.65;57.76
54994;BME280;40891;47.242;8.648;2023-06-04T08:59:22;96266.25;;;23.74;54.93
54994;BME280;40891;47.242;8.648;2023-06-04T09:01:48;96275.66;;;23.95;54.71
54994;BME280;40891;47.242;8.648;2023-06-04T09:04:13;96271.88;;;24.18;56.36
54994;BME280;40891;47.242;8.648;2023-06-04T09:06:39;96270.97;;;23.97;53.99
54994;BME280;40891;47.242;8.648;2023-06-04T09:09:09;96263.69;;;24.15;56.37
54994;BME280;40891;47.242;8.648;2023-06-04T09:11:37;96261.78;;;24.57;54.81
54994;BME280;40891;47.242;8.648;2023-06-04T09:14:11;96257.56;;;24.37;54.88
54994;BME280;40891;47.242;8.648;2023-06-04T09:16:52;96256.88;;;24.57;53.13
54994;BME280;40891;47.242;8.648;2023-06-04T09:19:19;96262.66;;;24.52;52.31
54994;BME280;40891;47.242;8.648;2023-06-04T09:21:48;96252.63;;;24.38;51.68
54994;BME280;40891;47.242;8.648;2023-06-04T09:24:13;96259.94;;;24.33;51.71
54994;BME280;40891;47.242;8.648;2023-06-04T09:26:39;96259.59;;;24.63;53.25
54994;BME280;40891;47.242;8.648;2023-06-04T09:29:04;96263.53;;;24.60;56.10
54994;BME280;40891;47.242;8.648;2023-06-04T09:31:31;96256.84;;;25.17;54.25
54994;BME280;40891;47.242;8.648;2023-06-04T09:34:02;96251.03;;;25.64;51.96
54994;BME280;40891;47.242;8.648;2023-06-04T09:36:34;96249.81;;;25.18;50.99
54994;BME280;40891;47.242;8.648;2023-06-04T09:39:03;96253.84;;;25.23;50.76
54994;BME280;40891;47.242;8.648;2023-06-04T09:41:30;96254.88;;;25.46;52.76
54994;BME280;40891;47.242;8.648;2023-06-04T09:44:02;96248.13;;;25.85;49.43
54994;BME280;40891;47.242;8.648;2023-06-04T09:46:28;96242.88;;;25.68;49.48
54994;BME280;40891;47.242;8.648;2023-06-04T09:49:05;96248.59;;;25.68;48.98
54994;BME280;40891;47.242;8.648;2023-06-04T09:51:31;96242.63;;;26.07;49.99
54994;BME280;40891;47.242;8.648;2023-06-04T09:54:01;96247.22;;;26.46;49.28
54994;BME280;40891;47.242;8.648;2023-06-04T09:56:28;96241.22;;;26.57;48.15
54994;BME280;40891;47.242;8.648;2023-06-04T09:58:57;96241.59;;;26.25;48.35
54994;BME280;40891;47.242;8.648;2023-06-04T10:01:26;96241.72;;;25.92;49.01
54994;BME280;40891;47.242;8.648;2023-06-04T10:03:53;96250.09;;;26.18;48.97
54994;BME280;40891;47.242;8.648;2023-06-04T10:06:19;96244.38;;;26.46;48.64
54994;BME280;40891;47.242;8.648;2023-06-04T10:08:46;96242.31;;;26.97;46.83
54994;BME280;40891;47.242;8.648;2023-06-04T10:11:13;96231.00;;;27.35;49.72
54994;BME280;40891;47.242;8.648;2023-06-04T10:16:09;96228.00;;;27.63;48.19
54994;BME280;40891;47.242;8.648;2023-06-04T10:18:36;96235.53;;;27.31;45.89
54994;BME280;40891;47.242;8.648;2023-06-04T10:21:02;96229.69;;;27.74;46.08
54994;BME280;40891;47.242;8.648;2023-06-04T10:23:28;96229.91;;;27.61;45.50
54994;BME280;40891;47.242;8.648;2023-06-04T10:25:54;96221.13;;;27.89;45.91
54994;BME280;40891;47.242;8.648;2023-06-04T10:28:22;96219.19;;;28.14;45.65
54994;BME280;40891;47.242;8.648;2023-06-04T10:30:48;96217.25;;;28.24;44.67
54994;BME280;40891;47.242;8.648;2023-06-04T10:33:20;96219.00;;;28.12;45.55
54994;BME280;40891;47.242;8.648;2023-06-04T10:35:48;96223.66;;;28.63;46.46
54994;BME280;40891;47.242;8.648;2023-06-04T10:38:13;96218.81;;;27.88;45.97
54994;BME280;40891;47.242;8.648;2023-06-04T10:40:41;96219.75;;;27.98;44.17
54994;BME280;40891;47.242;8.648;2023-06-04T10:43:11;96216.13;;;27.97;46.84
54994;BME280;40891;47.242;8.648;2023-06-04T10:45:37;96220.63;;;28.46;45.29
54994;BME280;40891;47.242;8.648;2023-06-04T10:48:04;96212.31;;;28.25;43.55
54994;BME280;40891;47.242;8.648;2023-06-04T10:50:31;96214.59;;;28.26;43.90
54994;BME280;40891;47.242;8.648;2023-06-04T10:52:57;96207.63;;;28.52;45.73
54994;BME280;40891;47.242;8.648;2023-06-04T10:55:24;96211.47;;;28.47;43.82
54994;BME280;40891;47.242;8.648;2023-06-04T10:58:00;96209.53;;;28.65;44.33
54994;BME280;40891;47.242;8.648;2023-06-04T11:03:05;96198.38;;;28.84;42.14
54994;BME280;40891;47.242;8.648;2023-06-04T11:05:40;96213.50;;;27.54;43.30
54994;BME280;40891;47.242;8.648;2023-06-04T11:08:08;96209.31;;;27.55;45.50
54994;BME280;40891;47.242;8.648;2023-06-04T11:10:39;96214.09;;;26.79;43.92
54994;BME280;40891;47.242;8.648;2023-06-04T11:13:05;96225.22;;;27.05;45.95
54994;BME280;40891;47.242;8.648;2023-06-04T11:15:45;96208.53;;;28.07;43.02
54994;BME280;40891;47.242;8.648;2023-06-04T11:18:16;96208.88;;;29.21;42.20
54994;BME280;40891;47.242;8.648;2023-06-04T11:20:41;96202.81;;;29.67;38.59
54994;BME280;40891;47.242;8.648;2023-06-04T11:23:12;96206.59;;;29.94;37.78
54994;BME280;40891;47.242;8.648;2023-06-04T11:25:37;96200.03;;;30.18;38.90
54994;BME280;40891;47.242;8.648;2023-06-04T11:28:03;96190.06;;;30.87;38.33
54994;BME280;40891;47.242;8.648;2023-06-04T11:30:29;96189.53;;;30.55;37.43
54994;BME280;40891;47.242;8.648;2023-06-04T11:33:04;96198.88;;;30.21;36.01
54994;BME280;40891;47.242;8.648;2023-06-04T11:35:30;96192.31;;;29.86;37.26
54994;BME280;40891;47.242;8.648;2023-06-04T11:37:57;96187.56;;;30.23;36.80
54994;BME280;40891;47.242;8.648;2023-06-04T11:40:24;96184.97;;;30.52;36.38
54994;BME280;40891;47.242;8.648;2023-06-04T11:42:51;96174.69;;;30.92;36.33
54994;BME280;40891;47.242;8.648;2023-06-04T11:45:19;96175.41;;;30.32;35.75
54994;BME280;40891;47.242;8.648;2023-06-04T11:47:47;96174.81;;;30.16;36.75
54994;BME280;40891;47.242;8.648;2023-06-04T11:50:12;96171.06;;;30.75;35.24
54994;BME280;40891;47.242;8.648;2023-06-04T11:52:38;96167.63;;;31.66;33.73
54994;BME280;40891;47.242;8.648;2023-06-04T11:55:07;96165.06;;;31.34;34.74
54994;BME280;40891;47.242;8.648;2023-06-04T11:57:33;96170.41;;;31.11;33.72
54994;BME280;40891;47.242;8.648;2023-06-04T11:59:59;96156.66;;;31.91;31.97
54994;BME280;40891;47.242;8.648;2023-06-04T12:02:24;96160.00;;;31.97;29.73
54994;BME280;40891;47.242;8.648;2023-06-04T12:04:50;96152.97;;;32.65;30.86
54994;BME280;40891;47.242;8.648;2023-06-04T12:07:20;96155.34;;;32.78;29.34
54994;BME280;40891;47.242;8.648;2023-06-04T12:09:49;96144.25;;;33.44;28.73
54994;BME280;40891;47.242;8.648;2023-06-04T12:12:14;96141.66;;;33.48;28.70
54994;BME280;40891;47.242;8.648;2023-06-04T12:14:40;96144.50;;;34.19;27.58
54994;BME280;40891;47.242;8.648;2023-06-04T12:17:09;96143.56;;;34.59;25.19
54994;BME280;40891;47.242;8.648;2023-06-04T12:19:46;96137.81;;;35.03;24.05
54994;BME280;40891;47.242;8.648;2023-06-04T12:22:13;96137.41;;;35.53;23.91
54994;BME280;40891;47.242;8.648;2023-06-04T12:24:49;96137.06;;;36.78;22.42
54994;BME280;40891;47.242;8.648;2023-06-04T12:27:18;96141.78;;;37.36;21.95
54994;BME280;40891;47.242;8.648;2023-06-04T12:30:00;96139.41;;;37.85;22.07
54994;BME280;40891;47.242;8.648;2023-06-04T12:32:26;96142.06;;;37.54;20.27
54994;BME280;40891;47.242;8.648;2023-06-04T12:34:52;96149.31;;;38.07;20.17
54994;BME280;40891;47.242;8.648;2023-06-04T12:37:17;96128.38;;;38.51;18.94
54994;BME280;40891;47.242;8.648;2023-06-04T12:39:43;96132.59;;;38.48;18.72
54994;BME280;40891;47.242;8.648;2023-06-04T12:42:08;96128.63;;;38.85;18.77
54994;BME280;40891;47.242;8.648;2023-06-04T12:44:39;96136.44;;;39.40;19.51
54994;BME280;40891;47.242;8.648;2023-06-04T12:47:05;96124.63;;;39.83;18.67
54994;BME280;40891;47.242;8.648;2023-06-04T12:49:30;96134.03;;;40.13;19.15
54994;BME280;40891;47.242;8.648;2023-06-04T12:51:56;96126.38;;;40.22;17.87
54994;BME280;40891;47.242;8.648;2023-06-04T12:54:21;96131.94;;;40.49;17.12
54994;BME280;40891;47.242;8.648;2023-06-04T12:56:48;96126.28;;;40.86;17.56
54994;BME280;40891;47.242;8.648;2023-06-04T12:59:13;96131.53;;;41.07;17.86
54994;BME280;40891;47.242;8.648;2023-06-04T13:01:38;96125.47;;;40.68;17.62
54994;BME280;40891;47.242;8.648;2023-06-04T13:04:04;96124.53;;;40.13;18.58